createdAt,value
2023-02-14T00:00:47.892Z,29.00
2023-02-14T00:03:50.520Z,30.63
2023-02-14T00:06:53.124Z,31.37
2023-02-14T00:09:55.698Z,31.10
2023-02-14T00:12:58.391Z,27.73
2023-02-14T00:16:01.425Z,29.40
2023-02-14T00:19:04.704Z,30.27
2023-02-14T00:22:07.470Z,33.15
2023-02-14T00:25:11.170Z,27.67
2023-02-14T00:28:13.832Z,28.38
2023-02-14T00:31:17.842Z,31.60
2023-02-14T00:34:20.938Z,28.73
2023-02-14T00:37:24.235Z,28.35
2023-02-14T00:40:26.809Z,31.10
2023-02-14T00:43:29.394Z,28.87
2023-02-14T00:46:33.533Z,34.33
2023-02-14T00:49:36.432Z,28.93
2023-02-14T00:52:39.112Z,28.65
2023-02-14T00:55:41.873Z,28.83
2023-02-14T00:58:44.811Z,28.73
2023-02-14T01:01:48.850Z,28.02
2023-02-14T01:04:51.858Z,29.40
2023-02-14T01:07:54.510Z,26.73
2023-02-14T01:10:57.468Z,29.80
2023-02-14T01:14:00.412Z,30.33
2023-02-14T01:17:04.763Z,26.67
2023-02-14T01:20:09.019Z,27.50
2023-02-14T01:23:11.708Z,28.00
2023-02-14T01:26:14.982Z,31.53
2023-02-14T01:29:17.643Z,32.85
2023-02-14T01:32:21.611Z,31.10
2023-02-14T01:35:25.523Z,30.60
2023-02-14T01:41:33.403Z,33.50
2023-02-14T01:45:02.625Z,27.30
2023-02-14T01:48:06.610Z,26.37
2023-02-14T01:51:09.369Z,28.07
2023-02-14T01:54:12.392Z,28.60
2023-02-14T01:57:17.285Z,29.10
2023-02-14T02:00:38.791Z,31.07
2023-02-14T02:03:45.792Z,27.87
2023-02-14T02:06:52.338Z,29.43
2023-02-14T02:09:57.070Z,30.97
2023-02-14T02:13:02.923Z,28.10
2023-02-14T02:16:27.163Z,31.63
2023-02-14T02:20:11.409Z,34.03
2023-02-14T02:23:40.347Z,32.47
2023-02-14T02:27:21.398Z,30.67
2023-02-14T02:30:44.078Z,34.57
2023-02-14T02:34:22.094Z,35.60
2023-02-14T02:37:33.715Z,29.93
2023-02-14T02:40:48.125Z,33.20
2023-02-14T02:43:55.582Z,31.27
2023-02-14T02:47:05.342Z,35.00
2023-02-14T02:50:37.729Z,34.97
2023-02-14T02:53:46.016Z,32.00
2023-02-14T02:56:53.431Z,30.13
2023-02-14T02:59:57.233Z,33.30
2023-02-14T03:03:23.214Z,38.03
2023-02-14T03:06:25.812Z,33.60
2023-02-14T03:09:56.714Z,39.33
2023-02-14T03:13:27.275Z,27.37
2023-02-14T03:16:35.599Z,32.27
2023-02-14T03:20:01.730Z,33.57
2023-02-14T03:23:10.106Z,34.13
2023-02-14T03:26:17.396Z,33.07
2023-02-14T03:29:26.855Z,29.13
2023-02-14T03:32:35.519Z,35.47
2023-02-14T03:35:41.610Z,37.93
2023-02-14T03:38:46.393Z,31.13
2023-02-14T03:41:53.009Z,32.70
2023-02-14T03:44:56.649Z,38.30
2023-02-14T03:48:03.356Z,35.85
2023-02-14T03:51:08.333Z,38.57
2023-02-14T03:54:13.012Z,35.00
2023-02-14T03:57:20.858Z,41.63
2023-02-14T04:00:23.760Z,37.53
2023-02-14T04:03:27.287Z,38.53
2023-02-14T04:06:30.862Z,35.65
2023-02-14T04:09:33.462Z,32.95
2023-02-14T04:12:38.277Z,38.07
2023-02-14T04:15:41.075Z,40.60
2023-02-14T04:19:01.593Z,35.67
2023-02-14T04:22:05.223Z,42.80
2023-02-14T04:25:08.341Z,42.30
2023-02-14T04:28:12.433Z,39.03
2023-02-14T04:31:16.003Z,43.37
2023-02-14T04:34:18.701Z,43.72
2023-02-14T04:37:21.835Z,36.10
2023-02-14T04:40:24.418Z,37.58
2023-02-14T04:43:28.378Z,36.07
2023-02-14T04:46:30.984Z,41.67
2023-02-14T04:49:34.070Z,36.80
2023-02-14T04:52:36.591Z,34.13
2023-02-14T04:55:39.176Z,39.73
2023-02-14T04:58:43.220Z,39.23
2023-02-14T05:01:45.816Z,32.90
2023-02-14T05:04:49.838Z,37.37
2023-02-14T05:07:52.531Z,37.80
2023-02-14T05:10:55.954Z,36.67
2023-02-14T05:14:00.087Z,45.85
2023-02-14T05:17:02.746Z,35.07
2023-02-14T05:20:06.418Z,38.23
2023-02-14T05:23:13.558Z,36.63
2023-02-14T05:26:16.805Z,35.37
2023-02-14T05:29:21.046Z,35.63
2023-02-14T05:32:23.597Z,37.03
2023-02-14T05:35:26.241Z,37.07
2023-02-14T05:38:28.976Z,36.93
2023-02-14T05:41:31.588Z,35.27
2023-02-14T05:44:35.603Z,40.23
2023-02-14T05:47:38.349Z,32.83
2023-02-14T05:50:42.470Z,35.80
2023-02-14T05:53:45.071Z,38.37
2023-02-14T05:56:47.692Z,31.77
2023-02-14T05:59:51.655Z,38.30
2023-02-14T06:02:54.209Z,37.57
2023-02-14T06:05:56.826Z,35.30
2023-02-14T06:08:59.586Z,43.87
2023-02-14T06:12:02.155Z,34.23
2023-02-14T06:15:07.101Z,41.03
2023-02-14T06:18:09.657Z,37.10
2023-02-14T06:21:12.314Z,41.70
2023-02-14T06:24:15.061Z,38.57
2023-02-14T06:27:18.126Z,37.10
2023-02-14T06:30:22.190Z,38.92
2023-02-14T06:33:24.885Z,46.23
2023-02-14T06:36:27.789Z,36.30
2023-02-14T06:39:30.446Z,36.92
2023-02-14T06:42:33.377Z,41.20
2023-02-14T06:45:37.562Z,41.72
2023-02-14T06:48:40.316Z,42.77
2023-02-14T06:51:42.933Z,48.20
2023-02-14T06:54:45.735Z,42.50
2023-02-14T06:57:48.371Z,39.63
2023-02-14T07:00:52.506Z,37.97
2023-02-14T07:03:55.133Z,45.10
2023-02-14T07:06:57.997Z,38.93
2023-02-14T07:10:00.769Z,46.63
2023-02-14T07:13:03.387Z,40.90
2023-02-14T07:16:07.477Z,43.43
2023-02-14T07:19:10.075Z,40.93
2023-02-14T07:22:12.784Z,37.90
2023-02-14T07:25:15.468Z,34.63
2023-02-14T07:28:18.119Z,43.90
2023-02-14T07:31:23.647Z,36.00
2023-02-14T07:34:27.251Z,33.83
2023-02-14T07:37:30.057Z,39.47
2023-02-14T07:40:32.783Z,38.50
2023-02-14T07:43:35.369Z,61.40
2023-02-14T07:46:39.470Z,46.67
2023-02-14T07:49:42.250Z,31.83
2023-02-14T07:52:45.495Z,36.27
2023-02-14T07:55:50.067Z,33.72
2023-02-14T07:58:52.738Z,38.50
2023-02-14T08:01:56.788Z,35.70
2023-02-14T08:04:59.608Z,32.63
2023-02-14T08:08:02.370Z,32.37
2023-02-14T08:11:05.306Z,34.07
2023-02-14T08:14:07.898Z,36.70
2023-02-14T08:17:13.431Z,34.67
2023-02-14T08:20:16.153Z,37.37
2023-02-14T08:23:19.620Z,37.07
2023-02-14T08:26:22.328Z,35.47
2023-02-14T08:29:25.064Z,59.83
2023-02-14T08:32:29.372Z,65.93
2023-02-14T08:35:32.025Z,40.67
2023-02-14T08:38:34.821Z,49.10
2023-02-14T08:41:37.869Z,41.72
2023-02-14T08:44:40.453Z,42.87
2023-02-14T08:47:44.495Z,40.03
2023-02-14T08:50:47.085Z,41.83
2023-02-14T08:53:51.618Z,33.57
2023-02-14T08:56:54.201Z,38.03
2023-02-14T08:59:56.837Z,37.10
2023-02-14T09:03:01.413Z,32.30
2023-02-14T09:06:04.802Z,34.77
2023-02-14T09:09:07.809Z,34.38
2023-02-14T09:12:11.338Z,31.80
2023-02-14T09:15:14.105Z,27.48
2023-02-14T09:18:18.072Z,31.50
2023-02-14T09:24:24.953Z,28.70
2023-02-14T09:27:27.625Z,30.97
2023-02-14T09:30:30.457Z,32.37
2023-02-14T09:33:34.559Z,33.37
2023-02-14T09:36:54.778Z,32.47
2023-02-14T09:39:57.477Z,35.53
2023-02-14T09:43:05.007Z,29.27
2023-02-14T09:46:09.645Z,29.40
2023-02-14T09:49:15.509Z,28.87
2023-02-14T09:52:28.594Z,29.07
2023-02-14T09:55:37.252Z,28.73
2023-02-14T09:58:45.210Z,32.27
2023-02-14T10:01:50.908Z,25.57
2023-02-14T10:04:59.655Z,27.07
2023-02-14T10:08:09.391Z,25.00
2023-02-14T10:11:16.268Z,29.63
2023-02-14T10:14:21.296Z,27.40
2023-02-14T10:17:33.915Z,27.33
2023-02-14T10:20:41.280Z,29.17
2023-02-14T10:23:46.982Z,23.90
2023-02-14T10:26:51.513Z,22.30
2023-02-14T10:29:54.367Z,28.43
2023-02-14T10:33:03.370Z,25.75
2023-02-14T10:36:15.701Z,23.23
2023-02-14T10:39:29.869Z,24.87
2023-02-14T10:42:39.551Z,25.77
2023-02-14T10:45:46.680Z,25.47
2023-02-14T10:48:55.730Z,29.80
2023-02-14T10:52:04.264Z,29.07
2023-02-14T10:55:20.175Z,27.63
2023-02-14T10:58:35.600Z,29.73
2023-02-14T11:01:38.390Z,26.40
2023-02-14T11:04:42.205Z,24.17
2023-02-14T11:10:49.674Z,22.00
2023-02-14T11:13:52.395Z,25.98
2023-02-14T11:16:55.656Z,22.20
2023-02-14T11:19:59.641Z,25.65
2023-02-14T11:23:03.653Z,23.07
2023-02-14T11:26:10.354Z,25.33
2023-02-14T11:29:14.739Z,25.80
2023-02-14T11:32:22.649Z,22.90
2023-02-14T11:35:33.869Z,25.47
2023-02-14T11:38:40.026Z,27.53
2023-02-14T11:41:50.232Z,21.97
2023-02-14T11:44:58.481Z,24.87
2023-02-14T11:48:22.341Z,23.20
2023-02-14T11:51:33.283Z,26.40
2023-02-14T11:54:38.536Z,23.10
2023-02-14T11:57:41.302Z,22.27
2023-02-14T12:00:52.543Z,20.25
2023-02-14T12:03:56.938Z,20.33
2023-02-14T12:07:14.677Z,23.87
2023-02-14T12:10:22.915Z,23.07
2023-02-14T12:13:26.814Z,20.17
2023-02-14T12:16:32.848Z,20.70
2023-02-14T12:19:40.069Z,18.30
2023-02-14T12:22:46.864Z,22.73
2023-02-14T12:25:52.505Z,22.00
2023-02-14T12:28:59.603Z,18.97
2023-02-14T12:32:06.360Z,20.30
2023-02-14T12:35:16.545Z,20.13
2023-02-14T12:38:26.595Z,19.77
2023-02-14T12:41:39.543Z,21.43
2023-02-14T12:44:47.231Z,25.00
2023-02-14T12:47:55.188Z,24.63
2023-02-14T12:51:01.957Z,21.87
2023-02-14T12:54:18.347Z,24.43
2023-02-14T12:57:34.801Z,26.83
2023-02-14T13:00:45.959Z,25.90
2023-02-14T13:04:01.118Z,19.90
2023-02-14T13:07:09.805Z,23.20
2023-02-14T13:10:22.076Z,20.60
2023-02-14T13:13:34.635Z,23.57
2023-02-14T13:16:41.549Z,20.47
2023-02-14T13:19:48.698Z,22.07
2023-02-14T13:22:51.540Z,20.70
2023-02-14T13:25:59.136Z,19.52
2023-02-14T13:29:05.772Z,25.33
2023-02-14T13:32:13.073Z,19.47
2023-02-14T13:35:16.967Z,26.77
2023-02-14T13:38:20.058Z,22.43
2023-02-14T13:41:23.679Z,17.95
2023-02-14T13:44:48.058Z,20.97
2023-02-14T13:48:03.522Z,21.87
2023-02-14T13:51:07.868Z,21.13
2023-02-14T13:54:21.998Z,20.40
2023-02-14T13:57:31.517Z,19.43
2023-02-14T14:00:41.033Z,22.50
2023-02-14T14:03:58.391Z,23.10
2023-02-14T14:07:18.642Z,18.37
2023-02-14T14:10:45.006Z,19.70
2023-02-14T14:14:02.506Z,20.07
2023-02-14T14:17:25.978Z,18.67
2023-02-14T14:20:48.835Z,20.30
2023-02-14T14:24:04.548Z,21.83
2023-02-14T14:27:08.681Z,21.07
2023-02-14T14:30:19.347Z,19.90
2023-02-14T14:33:27.870Z,24.40
2023-02-14T14:36:30.487Z,21.40
2023-02-14T14:39:34.506Z,17.85
2023-02-14T14:42:38.072Z,26.33
2023-02-14T14:45:42.652Z,22.43
2023-02-14T14:48:49.648Z,23.83
2023-02-14T14:51:52.388Z,17.20
2023-02-14T14:54:55.057Z,22.83
2023-02-14T14:57:59.435Z,22.05
2023-02-14T15:01:02.632Z,24.27
2023-02-14T15:04:18.167Z,20.27
2023-02-14T15:07:25.832Z,25.00
2023-02-14T15:10:30.123Z,25.07
2023-02-14T15:13:50.416Z,25.93
2023-02-14T15:16:57.612Z,19.87
2023-02-14T15:20:04.462Z,25.13
2023-02-14T15:23:07.170Z,21.80
2023-02-14T15:26:12.684Z,24.13
2023-02-14T15:29:22.777Z,24.73
2023-02-14T15:32:26.295Z,23.80
2023-02-14T15:35:32.880Z,27.02
2023-02-14T15:38:37.879Z,23.67
2023-02-14T15:41:44.770Z,27.10
2023-02-14T15:44:47.529Z,25.03
2023-02-14T15:47:53.065Z,23.73
2023-02-14T15:50:59.845Z,26.87
2023-02-14T15:54:04.859Z,35.53
2023-02-14T15:57:08.945Z,27.07
2023-02-14T16:00:17.997Z,26.27
2023-02-14T16:03:22.935Z,24.57
2023-02-14T16:06:36.666Z,26.63
2023-02-14T16:09:39.320Z,26.85
2023-02-14T16:12:42.457Z,25.93
2023-02-14T16:15:58.151Z,28.23
2023-02-14T16:19:01.729Z,26.43
2023-02-14T16:22:07.074Z,23.10
2023-02-14T16:25:10.024Z,35.80
2023-02-14T16:28:12.679Z,28.35
2023-02-14T16:31:16.989Z,31.13
2023-02-14T16:34:20.262Z,29.73
2023-02-14T16:37:26.734Z,24.52
2023-02-14T16:40:30.098Z,24.53
2023-02-14T16:43:32.811Z,24.77
2023-02-14T16:46:37.140Z,26.43
2023-02-14T16:49:39.877Z,28.60
2023-02-14T16:52:44.778Z,27.63
2023-02-14T16:55:47.454Z,27.57
2023-02-14T16:58:50.207Z,25.70
2023-02-14T17:01:53.162Z,29.13
2023-02-14T17:04:55.937Z,27.75
2023-02-14T17:08:01.720Z,29.67
2023-02-14T17:11:04.521Z,29.13
2023-02-14T17:14:07.627Z,27.77
2023-02-14T17:17:10.594Z,26.65
2023-02-14T17:20:14.459Z,30.40
2023-02-14T17:23:20.262Z,27.47
2023-02-14T17:26:23.339Z,29.43
2023-02-14T17:29:26.142Z,29.77
2023-02-14T17:32:28.756Z,32.50
2023-02-14T17:35:31.511Z,35.00
2023-02-14T17:38:35.953Z,29.83
2023-02-14T17:41:38.556Z,35.37
2023-02-14T17:44:41.211Z,36.67
2023-02-14T17:47:45.214Z,32.20
2023-02-14T17:50:47.803Z,33.10
2023-02-14T17:53:52.166Z,35.33
2023-02-14T17:56:54.763Z,33.10
2023-02-14T17:59:58.431Z,32.90
2023-02-14T18:03:01.211Z,31.60
2023-02-14T18:06:04.531Z,34.10
2023-02-14T18:09:09.141Z,30.75
2023-02-14T18:12:14.933Z,35.67
2023-02-14T18:15:18.386Z,40.20
2023-02-14T18:18:21.421Z,35.38
2023-02-14T18:21:25.461Z,40.47
2023-02-14T18:24:29.443Z,41.33
2023-02-14T18:27:32.429Z,39.20
2023-02-14T18:30:35.062Z,36.20
2023-02-14T18:33:38.493Z,35.80
2023-02-14T18:36:42.195Z,42.50
2023-02-14T18:39:46.792Z,35.67
2023-02-14T18:42:49.355Z,35.47
2023-02-14T18:45:51.998Z,37.23
2023-02-14T18:48:56.100Z,36.93
2023-02-14T18:51:59.748Z,33.23
2023-02-14T18:55:03.904Z,39.90
2023-02-14T18:58:07.840Z,39.90
2023-02-14T19:01:12.130Z,40.20
2023-02-14T19:04:16.653Z,38.13
2023-02-14T19:07:19.793Z,44.50
2023-02-14T19:10:24.505Z,40.65
2023-02-14T19:13:29.374Z,37.33
2023-02-14T19:16:34.250Z,35.23
2023-02-14T19:19:36.880Z,49.37
2023-02-14T19:22:39.559Z,42.87
2023-02-14T19:25:43.692Z,38.00
2023-02-14T19:28:48.228Z,33.87
2023-02-14T19:31:56.909Z,34.93
2023-02-14T19:34:59.680Z,37.40
2023-02-14T19:38:03.474Z,35.70
2023-02-14T19:44:13.899Z,32.75
2023-02-14T19:47:29.032Z,34.97
2023-02-14T19:50:36.556Z,32.97
2023-02-14T19:53:39.206Z,39.60
2023-02-14T19:56:45.406Z,34.63
2023-02-14T19:59:48.103Z,39.37
2023-02-14T20:02:51.107Z,45.00
2023-02-14T20:05:53.888Z,38.10
2023-02-14T20:09:06.149Z,37.60
2023-02-14T20:12:26.263Z,36.53
2023-02-14T20:15:33.539Z,33.17
2023-02-14T20:18:37.540Z,39.60
2023-02-14T20:21:42.025Z,34.72
2023-02-14T20:24:44.648Z,36.30
2023-02-14T20:27:51.316Z,36.37
2023-02-14T20:30:54.466Z,40.03
2023-02-14T20:33:57.610Z,41.03
2023-02-14T20:37:01.150Z,35.53
2023-02-14T20:40:04.526Z,36.63
2023-02-14T20:43:08.531Z,41.40
2023-02-14T20:46:12.239Z,40.50
2023-02-14T20:49:16.186Z,43.40
2023-02-14T20:52:19.488Z,36.40
2023-02-14T20:55:22.142Z,38.83
2023-02-14T20:58:26.128Z,35.27
2023-02-14T21:01:29.324Z,38.60
2023-02-14T21:04:32.160Z,34.92
2023-02-14T21:07:34.709Z,36.73
2023-02-14T21:10:44.327Z,35.17
2023-02-14T21:13:48.237Z,33.27
2023-02-14T21:20:17.093Z,35.27
2023-02-14T21:23:20.104Z,38.70
2023-02-14T21:26:22.739Z,34.92
2023-02-14T21:29:27.272Z,36.37
2023-02-14T21:32:30.228Z,39.30
2023-02-14T21:35:32.788Z,40.67
2023-02-14T21:38:35.596Z,38.20
2023-02-14T21:41:38.482Z,39.73
2023-02-14T21:45:00.186Z,38.15
2023-02-14T21:48:20.523Z,35.00
2023-02-14T21:51:23.742Z,41.37
2023-02-14T21:54:29.116Z,34.38
2023-02-14T21:57:34.097Z,31.60
2023-02-14T22:00:48.109Z,42.23
2023-02-14T22:03:52.386Z,40.95
2023-02-14T22:06:57.165Z,34.73
2023-02-14T22:10:00.075Z,40.83
2023-02-14T22:13:02.839Z,42.63
2023-02-14T22:16:12.865Z,40.37
2023-02-14T22:19:17.031Z,41.27
2023-02-14T22:22:19.688Z,49.00
2023-02-14T22:25:23.067Z,41.80
2023-02-14T22:28:25.840Z,34.95
2023-02-14T22:31:39.655Z,44.63
2023-02-14T22:34:42.418Z,40.65
2023-02-14T22:37:45.072Z,42.90
2023-02-14T22:40:47.669Z,38.20
2023-02-14T22:43:50.746Z,41.90
2023-02-14T22:46:54.791Z,43.15
2023-02-14T22:49:59.354Z,42.63
2023-02-14T22:53:03.237Z,41.93
2023-02-14T22:56:13.561Z,39.42
2023-02-14T22:59:18.580Z,36.67
2023-02-14T23:02:22.595Z,38.73
2023-02-14T23:05:25.540Z,42.13
2023-02-14T23:08:28.325Z,40.15
2023-02-14T23:11:32.220Z,35.60
2023-02-14T23:18:14.525Z,35.70
2023-02-14T23:21:35.072Z,40.23
2023-02-14T23:24:37.965Z,37.30
2023-02-14T23:27:42.891Z,37.50
2023-02-14T23:30:45.893Z,35.13
2023-02-14T23:33:52.571Z,31.52
2023-02-14T23:36:55.344Z,35.60
2023-02-14T23:39:58.020Z,31.40
2023-02-14T23:43:00.763Z,34.33
2023-02-14T23:46:03.787Z,32.87
2023-02-14T23:49:09.408Z,32.80
2023-02-14T23:52:13.251Z,32.00
2023-02-14T23:58:18.473Z,30.60
